createdAt,value
2018-11-13T00:00:42.077Z,99.41
2018-11-13T00:03:11.718Z,99.00
2018-11-13T00:05:41.577Z,98.78
2018-11-13T00:08:11.335Z,98.68
2018-11-13T00:10:41.772Z,98.47
2018-11-13T00:13:11.543Z,98.91
2018-11-13T00:15:41.215Z,99.00
2018-11-13T00:18:10.849Z,98.56
2018-11-13T00:20:40.626Z,98.75
2018-11-13T00:23:10.155Z,98.46
2018-11-13T00:25:39.988Z,98.05
2018-11-13T00:28:09.900Z,97.86
2018-11-13T00:30:39.572Z,97.87
2018-11-13T00:33:09.251Z,97.49
2018-11-13T00:35:39.348Z,97.42
2018-11-13T00:38:09.017Z,97.75
2018-11-13T00:40:38.647Z,97.45
2018-11-13T00:43:08.387Z,97.67
2018-11-13T00:45:38.117Z,98.08
2018-11-13T00:48:07.823Z,98.21
2018-11-13T00:50:37.605Z,98.31
2018-11-13T00:53:07.544Z,98.12
2018-11-13T00:55:37.451Z,98.43
2018-11-13T00:58:07.197Z,99.12
2018-11-13T01:00:36.749Z,99.16
2018-11-13T01:03:06.763Z,99.55
2018-11-13T01:05:36.664Z,99.68
2018-11-13T01:08:06.634Z,99.59
2018-11-13T01:10:36.404Z,99.52
2018-11-13T01:13:06.236Z,98.81
2018-11-13T01:15:35.996Z,98.05
2018-11-13T01:18:05.925Z,97.90
2018-11-13T01:20:35.733Z,97.68
2018-11-13T01:23:05.489Z,97.82
2018-11-13T01:25:35.314Z,98.23
2018-11-13T01:28:05.012Z,98.18
2018-11-13T01:30:34.806Z,98.35
2018-11-13T01:33:04.517Z,98.17
2018-11-13T01:35:34.289Z,97.48
2018-11-13T01:38:04.263Z,97.12
2018-11-13T01:40:33.937Z,97.43
2018-11-13T01:43:03.740Z,97.50
2018-11-13T01:45:33.892Z,98.06
2018-11-13T01:48:03.618Z,98.49
2018-11-13T01:50:34.449Z,97.59
2018-11-13T01:53:04.156Z,97.63
2018-11-13T01:55:34.010Z,98.28
2018-11-13T01:58:03.821Z,98.21
2018-11-13T02:00:33.621Z,98.39
2018-11-13T02:03:03.251Z,97.44
2018-11-13T02:05:33.036Z,97.40
2018-11-13T02:08:02.606Z,97.44
2018-11-13T02:10:32.328Z,98.23
2018-11-13T02:13:02.572Z,98.37
2018-11-13T02:15:32.448Z,98.42
2018-11-13T02:18:02.221Z,98.50
2018-11-13T02:20:32.157Z,98.87
2018-11-13T02:23:01.779Z,98.50
2018-11-13T02:25:31.753Z,98.67
2018-11-13T02:28:01.491Z,99.17
2018-11-13T02:30:31.185Z,99.04
2018-11-13T02:33:01.854Z,98.98
2018-11-13T02:35:31.674Z,99.94
2018-11-13T02:38:01.363Z,100.00
2018-11-13T02:40:31.136Z,100.00
2018-11-13T02:43:00.960Z,100.00
2018-11-13T02:45:30.757Z,100.00
2018-11-13T02:48:00.635Z,100.00
2018-11-13T02:50:30.347Z,100.00
2018-11-13T02:53:00.215Z,100.00
2018-11-13T02:55:29.825Z,100.00
2018-11-13T02:57:59.527Z,100.00
2018-11-13T03:00:30.304Z,100.00
2018-11-13T03:03:00.060Z,100.00
2018-11-13T03:05:29.812Z,99.68
2018-11-13T03:08:00.617Z,99.71
2018-11-13T03:10:30.409Z,99.55
2018-11-13T03:13:00.140Z,99.83
2018-11-13T03:15:29.956Z,99.50
2018-11-13T03:17:59.611Z,99.98
2018-11-13T03:20:29.379Z,100.00
2018-11-13T03:22:59.054Z,100.00
2018-11-13T03:25:29.013Z,100.00
2018-11-13T03:27:58.869Z,100.00
2018-11-13T03:30:28.636Z,100.00
2018-11-13T03:32:58.292Z,100.00
2018-11-13T03:35:28.151Z,100.00
2018-11-13T03:37:57.885Z,100.00
2018-11-13T03:40:27.664Z,100.00
2018-11-13T03:42:57.950Z,100.00
2018-11-13T03:45:27.695Z,100.00
2018-11-13T03:47:57.277Z,100.00
2018-11-13T03:50:27.096Z,100.00
2018-11-13T03:52:56.731Z,100.00
2018-11-13T03:55:26.547Z,100.00
2018-11-13T03:57:56.228Z,100.00
2018-11-13T04:00:25.932Z,99.75
2018-11-13T04:02:56.554Z,99.39
2018-11-13T04:05:26.288Z,99.19
2018-11-13T04:07:56.176Z,99.17
2018-11-13T04:10:26.204Z,99.66
2018-11-13T04:12:56.979Z,99.81
2018-11-13T04:15:26.886Z,99.60
2018-11-13T04:17:57.448Z,99.62
2018-11-13T04:20:27.278Z,100.00
2018-11-13T04:22:57.031Z,100.00
2018-11-13T04:25:26.843Z,100.00
2018-11-13T04:27:56.544Z,100.00
2018-11-13T04:30:26.343Z,100.00
2018-11-13T04:32:56.070Z,99.97
2018-11-13T04:35:25.833Z,100.00
2018-11-13T04:37:55.712Z,100.00
2018-11-13T04:40:25.463Z,100.00
2018-11-13T04:42:55.323Z,100.00
2018-11-13T04:45:25.986Z,100.00
2018-11-13T04:47:55.750Z,100.00
2018-11-13T04:50:25.511Z,100.00
2018-11-13T04:52:55.223Z,100.00
2018-11-13T04:55:25.083Z,100.00
2018-11-13T04:57:54.784Z,100.00
2018-11-13T05:00:25.575Z,100.00
2018-11-13T05:02:55.149Z,100.00
2018-11-13T05:05:24.821Z,100.00
2018-11-13T05:07:55.317Z,100.00
2018-11-13T05:10:26.199Z,100.00
2018-11-13T05:12:55.924Z,100.00
2018-11-13T05:15:25.597Z,100.00
2018-11-13T05:17:55.454Z,100.00
2018-11-13T05:20:25.228Z,100.00
2018-11-13T05:22:56.157Z,100.00
2018-11-13T05:25:25.937Z,100.00
2018-11-13T05:27:55.701Z,100.00
2018-11-13T05:30:25.312Z,100.00
2018-11-13T05:32:55.034Z,100.00
2018-11-13T05:35:24.837Z,100.00
2018-11-13T05:37:54.437Z,99.34
2018-11-13T05:40:25.217Z,99.49
2018-11-13T05:42:55.165Z,99.25
2018-11-13T05:45:26.254Z,99.17
2018-11-13T05:47:55.957Z,99.58
2018-11-13T05:50:25.815Z,98.35
2018-11-13T05:52:55.744Z,98.53
2018-11-13T05:55:25.413Z,97.81
2018-11-13T05:57:55.187Z,96.71
2018-11-13T06:00:29.984Z,93.40
2018-11-13T06:03:00.028Z,91.46
2018-11-13T06:05:29.803Z,90.05
2018-11-13T06:07:59.652Z,87.70
2018-11-13T06:10:29.436Z,86.72
2018-11-13T06:12:59.312Z,84.52
2018-11-13T06:15:28.982Z,82.82
2018-11-13T06:17:58.661Z,81.56
2018-11-13T06:20:29.519Z,79.66
2018-11-13T06:22:59.372Z,77.88
2018-11-13T06:25:29.057Z,75.41
2018-11-13T06:27:58.721Z,72.64
2018-11-13T06:30:28.465Z,68.23
2018-11-13T06:32:59.103Z,67.90
2018-11-13T06:35:29.048Z,66.98
2018-11-13T06:37:58.809Z,65.43
2018-11-13T06:40:28.531Z,64.76
2018-11-13T06:42:58.342Z,63.41
2018-11-13T06:45:28.140Z,61.03
2018-11-13T06:47:58.076Z,62.90
2018-11-13T06:50:27.919Z,64.12
2018-11-13T06:52:57.775Z,66.15
2018-11-13T06:55:32.357Z,66.54
2018-11-13T06:58:02.534Z,67.55
2018-11-13T07:00:32.395Z,66.17
2018-11-13T07:03:02.139Z,64.34
2018-11-13T07:05:32.081Z,63.12
2018-11-13T07:08:01.867Z,62.82
2018-11-13T07:10:31.763Z,60.27
2018-11-13T07:13:01.677Z,59.22
2018-11-13T07:15:32.425Z,58.16
2018-11-13T07:18:05.863Z,57.56
2018-11-13T07:20:36.169Z,56.06
2018-11-13T07:23:05.853Z,54.70
2018-11-13T07:25:35.779Z,53.57
2018-11-13T07:28:05.752Z,53.05
2018-11-13T07:30:35.490Z,53.56
2018-11-13T07:33:05.584Z,52.17
2018-11-13T07:35:35.430Z,51.99
2018-11-13T07:38:05.182Z,49.36
2018-11-13T07:40:35.044Z,50.76
2018-11-13T07:43:04.894Z,49.08
2018-11-13T07:45:34.588Z,47.39
2018-11-13T07:48:04.449Z,46.53
2018-11-13T07:50:34.322Z,46.68
2018-11-13T07:53:04.253Z,47.50
2018-11-13T07:55:33.847Z,46.25
2018-11-13T07:58:03.507Z,45.54
2018-11-13T08:00:33.092Z,44.26
2018-11-13T08:03:13.762Z,43.21
2018-11-13T08:05:43.523Z,42.36
2018-11-13T08:08:13.364Z,42.64
2018-11-13T08:10:42.934Z,43.71
2018-11-13T08:13:12.912Z,41.05
2018-11-13T08:15:42.748Z,42.14
2018-11-13T08:18:12.380Z,40.85
2018-11-13T08:20:42.235Z,42.17
2018-11-13T08:23:11.971Z,44.02
2018-11-13T08:25:42.836Z,43.75
2018-11-13T08:28:12.952Z,43.13
2018-11-13T08:30:42.667Z,42.07
2018-11-13T08:33:12.528Z,40.29
2018-11-13T08:35:42.233Z,41.77
2018-11-13T08:38:12.140Z,40.64
2018-11-13T08:40:42.125Z,39.24
2018-11-13T08:43:12.013Z,39.46
2018-11-13T08:45:41.850Z,40.06
2018-11-13T08:48:11.749Z,39.77
2018-11-13T08:50:41.544Z,41.68
2018-11-13T08:53:11.352Z,41.27
2018-11-13T08:55:41.051Z,39.56
2018-11-13T08:58:10.904Z,38.48
2018-11-13T09:00:40.805Z,37.72
2018-11-13T09:03:10.681Z,38.19
2018-11-13T09:05:40.649Z,38.09
2018-11-13T09:08:10.516Z,38.64
2018-11-13T09:10:41.021Z,37.07
2018-11-13T09:13:10.893Z,36.89
2018-11-13T09:15:40.916Z,39.49
2018-11-13T09:18:10.683Z,37.33
2018-11-13T09:20:40.437Z,36.89
2018-11-13T09:23:10.278Z,35.23
2018-11-13T09:25:39.928Z,34.95
2018-11-13T09:28:09.934Z,37.61
2018-11-13T09:30:39.990Z,37.65
2018-11-13T09:33:09.864Z,36.13
2018-11-13T09:35:39.524Z,37.40
2018-11-13T09:38:09.404Z,37.34
2018-11-13T09:40:39.180Z,35.33
2018-11-13T09:43:09.020Z,34.23
2018-11-13T09:45:38.966Z,35.84
2018-11-13T09:48:08.668Z,35.35
2018-11-13T09:50:38.617Z,35.48
2018-11-13T09:53:08.523Z,34.54
2018-11-13T09:55:38.389Z,35.06
2018-11-13T09:58:08.128Z,34.62
2018-11-13T10:00:38.172Z,34.72
2018-11-13T10:03:08.332Z,34.96
2018-11-13T10:05:37.922Z,32.92
2018-11-13T10:08:07.375Z,34.77
2018-11-13T10:10:36.977Z,34.65
2018-11-13T10:13:07.101Z,34.57
2018-11-13T10:15:37.032Z,34.37
2018-11-13T10:18:06.830Z,34.06
2018-11-13T10:20:37.196Z,33.76
2018-11-13T10:23:07.079Z,32.83
2018-11-13T10:25:36.756Z,33.87
2018-11-13T10:28:06.719Z,33.93
2018-11-13T10:30:36.551Z,33.31
2018-11-13T10:33:06.662Z,30.33
2018-11-13T10:35:36.487Z,30.55
2018-11-13T10:38:06.422Z,32.89
2018-11-13T10:40:36.304Z,34.25
2018-11-13T10:43:06.996Z,34.87
2018-11-13T10:45:37.181Z,35.00
2018-11-13T10:48:06.961Z,34.33
2018-11-13T10:50:36.851Z,34.59
2018-11-13T10:53:06.939Z,34.62
2018-11-13T10:55:36.963Z,33.39
2018-11-13T10:58:06.852Z,34.38
2018-11-13T11:00:41.394Z,34.79
2018-11-13T11:03:16.152Z,35.05
2018-11-13T11:05:46.164Z,34.78
2018-11-13T11:08:16.028Z,35.96
2018-11-13T11:10:45.855Z,38.01
2018-11-13T11:13:15.913Z,35.96
2018-11-13T11:15:45.595Z,36.07
2018-11-13T11:18:15.274Z,37.50
2018-11-13T11:20:45.305Z,37.28
2018-11-13T11:23:15.007Z,35.66
2018-11-13T11:25:44.971Z,34.56
2018-11-13T11:28:14.888Z,32.29
2018-11-13T11:30:44.670Z,33.56
2018-11-13T11:33:14.387Z,33.20
2018-11-13T11:35:44.389Z,34.30
2018-11-13T11:38:14.149Z,34.22
2018-11-13T11:40:43.901Z,33.59
2018-11-13T11:43:13.475Z,33.92
2018-11-13T11:45:43.006Z,36.44
2018-11-13T11:48:12.544Z,36.89
2018-11-13T11:50:42.023Z,34.79
2018-11-13T11:53:11.574Z,35.51
2018-11-13T11:55:41.139Z,37.68
2018-11-13T11:58:10.737Z,38.00
2018-11-13T12:00:40.311Z,38.96
2018-11-13T12:03:09.823Z,39.07
2018-11-13T12:05:39.517Z,39.54
2018-11-13T12:08:09.047Z,40.82
2018-11-13T12:10:38.661Z,40.13
2018-11-13T12:13:08.221Z,38.75
2018-11-13T12:15:37.746Z,37.98
2018-11-13T12:18:07.711Z,39.42
2018-11-13T12:20:37.323Z,41.33
2018-11-13T12:23:07.012Z,40.55
2018-11-13T12:25:36.784Z,41.39
2018-11-13T12:28:06.478Z,41.69
2018-11-13T12:30:36.420Z,41.52
2018-11-13T12:33:06.394Z,42.02
2018-11-13T12:35:36.091Z,42.82
2018-11-13T12:38:05.576Z,43.60
2018-11-13T12:40:35.201Z,43.82
2018-11-13T12:43:04.784Z,44.08
2018-11-13T12:45:34.361Z,44.51
2018-11-13T12:48:03.888Z,44.52
2018-11-13T12:50:38.446Z,44.32
2018-11-13T12:53:08.005Z,44.91
2018-11-13T12:55:38.001Z,45.00
2018-11-13T12:58:07.695Z,44.50
2018-11-13T13:00:37.313Z,44.95
2018-11-13T13:03:06.922Z,45.00
2018-11-13T13:05:36.672Z,44.43
2018-11-13T13:08:06.335Z,44.56
2018-11-13T13:10:35.930Z,44.75
2018-11-13T13:13:05.728Z,44.99
2018-11-13T13:15:35.311Z,44.59
2018-11-13T13:18:04.999Z,45.30
2018-11-13T13:20:34.623Z,45.50
2018-11-13T13:23:04.316Z,46.11
2018-11-13T13:25:33.876Z,44.78
2018-11-13T13:28:03.650Z,45.65
2018-11-13T13:30:33.251Z,45.92
2018-11-13T13:33:03.112Z,45.14
2018-11-13T13:35:40.678Z,45.57
2018-11-13T13:38:10.751Z,45.82
2018-11-13T13:40:41.002Z,45.46
2018-11-13T13:43:11.332Z,45.20
2018-11-13T13:45:41.709Z,45.51
2018-11-13T13:48:11.664Z,45.88
2018-11-13T13:50:41.397Z,46.39
2018-11-13T13:53:12.133Z,46.37
2018-11-13T13:55:41.996Z,47.01
2018-11-13T13:58:12.112Z,47.18
2018-11-13T14:00:41.973Z,46.84
2018-11-13T14:03:13.020Z,47.35
2018-11-13T14:05:42.933Z,47.44
2018-11-13T14:08:13.190Z,47.86
2018-11-13T14:10:42.865Z,47.96
2018-11-13T14:13:12.771Z,48.18
2018-11-13T14:15:42.533Z,48.47
2018-11-13T14:18:12.358Z,49.13
2018-11-13T14:20:42.022Z,49.77
2018-11-13T14:23:11.514Z,50.25
2018-11-13T14:25:41.054Z,50.86
2018-11-13T14:28:11.033Z,51.21
2018-11-13T14:30:41.587Z,51.89
2018-11-13T14:33:13.828Z,51.81
2018-11-13T14:35:43.636Z,52.32
2018-11-13T14:38:13.336Z,53.66
2018-11-13T14:40:45.900Z,54.13
2018-11-13T14:43:15.644Z,54.43
2018-11-13T14:45:45.988Z,54.98
2018-11-13T14:48:15.597Z,55.69
2018-11-13T14:50:45.383Z,55.90
2018-11-13T14:53:15.496Z,56.92
2018-11-13T14:55:45.996Z,56.95
2018-11-13T14:58:16.619Z,57.41
2018-11-13T15:00:46.252Z,58.15
2018-11-13T15:03:17.004Z,58.87
2018-11-13T15:05:46.695Z,59.59
2018-11-13T15:08:16.306Z,60.19
2018-11-13T15:10:48.171Z,60.43
2018-11-13T15:13:18.137Z,61.12
2018-11-13T15:15:47.831Z,61.93
2018-11-13T15:18:17.367Z,62.92
2018-11-13T15:20:48.757Z,63.14
2018-11-13T15:23:18.321Z,63.23
2018-11-13T15:25:47.938Z,63.74
2018-11-13T15:28:17.780Z,64.46
2018-11-13T15:30:50.646Z,63.96
2018-11-13T15:33:23.674Z,64.59
2018-11-13T15:35:53.280Z,65.04
2018-11-13T15:38:22.756Z,65.22
2018-11-13T15:40:52.504Z,66.00
2018-11-13T15:43:21.988Z,66.52
2018-11-13T15:45:52.835Z,66.80
2018-11-13T15:48:22.408Z,67.62
2018-11-13T15:50:52.049Z,67.30
2018-11-13T15:53:21.683Z,67.13
2018-11-13T15:55:51.111Z,68.45
2018-11-13T15:58:20.454Z,67.74
2018-11-13T16:00:50.252Z,68.16
2018-11-13T16:03:23.966Z,68.46
2018-11-13T16:05:54.893Z,68.17
2018-11-13T16:08:24.550Z,68.22
2018-11-13T16:10:54.131Z,68.65
2018-11-13T16:13:24.182Z,69.04
2018-11-13T16:15:54.669Z,68.66
2018-11-13T16:18:25.522Z,69.66
2018-11-13T16:20:55.505Z,70.57
2018-11-13T16:23:25.055Z,70.49
2018-11-13T16:25:54.693Z,70.81
2018-11-13T16:28:24.270Z,70.98
2018-11-13T16:30:54.137Z,71.36
2018-11-13T16:33:23.961Z,71.04
2018-11-13T16:35:53.500Z,71.61
2018-11-13T16:38:23.287Z,72.04
2018-11-13T16:40:53.874Z,72.22
2018-11-13T16:43:23.528Z,71.95
2018-11-13T16:45:53.181Z,72.59
2018-11-13T16:48:22.807Z,72.21
2018-11-13T16:50:52.419Z,72.32
2018-11-13T16:53:21.933Z,72.64
2018-11-13T16:55:57.467Z,72.43
2018-11-13T16:58:27.244Z,73.11
2018-11-13T17:00:57.117Z,73.76
2018-11-13T17:03:27.289Z,73.97
2018-11-13T17:05:57.042Z,74.94
2018-11-13T17:08:26.820Z,75.08
2018-11-13T17:10:56.356Z,75.13
2018-11-13T17:13:26.675Z,75.72
2018-11-13T17:15:56.382Z,75.77
2018-11-13T17:18:27.222Z,75.64
2018-11-13T17:20:55.611Z,75.53
2018-11-13T17:23:25.848Z,76.17
2018-11-13T17:25:55.418Z,76.18
2018-11-13T17:28:25.120Z,75.59
2018-11-13T17:30:55.182Z,76.29
2018-11-13T17:33:24.869Z,75.97
2018-11-13T17:35:54.422Z,75.89
2018-11-13T17:38:24.435Z,76.30
2018-11-13T17:40:54.064Z,76.86
2018-11-13T17:43:23.672Z,76.39
2018-11-13T17:45:53.423Z,77.09
2018-11-13T17:48:22.907Z,77.14
2018-11-13T17:50:52.690Z,77.04
2018-11-13T17:53:22.573Z,78.02
2018-11-13T17:55:52.182Z,77.89
2018-11-13T17:58:21.944Z,77.79
2018-11-13T18:00:51.874Z,77.78
2018-11-13T18:03:21.576Z,77.80
2018-11-13T18:05:51.066Z,78.47
2018-11-13T18:08:20.798Z,78.32
2018-11-13T18:10:50.393Z,78.23
2018-11-13T18:13:20.213Z,78.41
2018-11-13T18:15:50.016Z,78.39
2018-11-13T18:18:19.697Z,79.00
2018-11-13T18:20:49.306Z,79.58
2018-11-13T18:23:18.851Z,79.87
2018-11-13T18:25:51.916Z,80.61
2018-11-13T18:28:21.602Z,80.57
2018-11-13T18:30:51.203Z,80.40
2018-11-13T18:33:20.758Z,80.11
2018-11-13T18:35:50.462Z,80.55
2018-11-13T18:38:20.144Z,80.92
2018-11-13T18:40:50.894Z,81.28
2018-11-13T18:43:20.448Z,82.00
2018-11-13T18:45:50.305Z,82.67
2018-11-13T18:48:19.921Z,82.04
2018-11-13T18:50:49.689Z,82.52
2018-11-13T18:53:19.499Z,82.42
2018-11-13T18:55:49.303Z,83.11
2018-11-13T18:58:19.016Z,84.04
2018-11-13T19:00:48.721Z,84.14
2018-11-13T19:03:18.400Z,85.27
2018-11-13T19:05:48.525Z,84.61
2018-11-13T19:08:18.325Z,84.72
2018-11-13T19:10:49.568Z,84.36
2018-11-13T19:13:25.780Z,84.26
2018-11-13T19:15:59.687Z,84.10
2018-11-13T19:18:29.342Z,84.14
2018-11-13T19:20:58.913Z,84.31
2018-11-13T19:23:28.657Z,84.01
2018-11-13T19:25:58.102Z,84.64
2018-11-13T19:28:28.890Z,84.81
2018-11-13T19:30:58.563Z,85.58
2018-11-13T19:33:28.264Z,85.25
2018-11-13T19:35:58.528Z,85.80
2018-11-13T19:38:28.306Z,86.06
2018-11-13T19:40:58.201Z,86.19
2018-11-13T19:43:27.928Z,86.97
2018-11-13T19:45:57.700Z,87.04
2018-11-13T19:48:27.257Z,86.59
2018-11-13T19:50:56.841Z,86.75
2018-11-13T19:53:26.334Z,87.54
2018-11-13T19:55:59.365Z,87.63
2018-11-13T19:58:28.899Z,87.65
2018-11-13T20:00:58.524Z,88.17
2018-11-13T20:03:28.105Z,88.14
2018-11-13T20:05:57.806Z,88.14
2018-11-13T20:08:27.515Z,87.90
2018-11-13T20:10:57.726Z,88.19
2018-11-13T20:13:27.412Z,88.13
2018-11-13T20:15:57.084Z,88.09
2018-11-13T20:18:26.689Z,88.32
2018-11-13T20:20:56.331Z,88.39
2018-11-13T20:23:26.109Z,89.01
2018-11-13T20:25:55.687Z,89.23
2018-11-13T20:28:25.359Z,89.32
2018-11-13T20:30:55.084Z,88.77
2018-11-13T20:33:24.679Z,88.49
2018-11-13T20:35:54.517Z,89.33
2018-11-13T20:38:24.146Z,89.03
2018-11-13T20:40:54.087Z,88.97
2018-11-13T20:43:24.710Z,89.73
2018-11-13T20:45:54.361Z,89.52
2018-11-13T20:48:24.019Z,89.76
2018-11-13T20:50:53.551Z,89.87
2018-11-13T20:53:23.083Z,89.84
2018-11-13T20:55:52.709Z,90.00
2018-11-13T20:58:22.243Z,90.53
2018-11-13T21:00:51.977Z,90.15
2018-11-13T21:03:21.534Z,90.71
2018-11-13T21:05:51.281Z,90.56
2018-11-13T21:08:20.966Z,90.92
2018-11-13T21:10:54.569Z,90.52
2018-11-13T21:13:24.200Z,90.22
2018-11-13T21:15:53.698Z,90.33
2018-11-13T21:18:23.409Z,90.93
2018-11-13T21:20:53.218Z,90.64
2018-11-13T21:23:22.854Z,90.93
2018-11-13T21:25:52.695Z,90.44
2018-11-13T21:28:22.487Z,90.15
2018-11-13T21:30:52.100Z,90.22
2018-11-13T21:33:21.678Z,90.55
2018-11-13T21:35:51.282Z,90.34
2018-11-13T21:38:20.886Z,91.15
2018-11-13T21:40:50.462Z,91.44
2018-11-13T21:43:20.117Z,91.17
2018-11-13T21:45:49.578Z,91.32
2018-11-13T21:48:19.335Z,91.19
2018-11-13T21:50:49.520Z,90.81
2018-11-13T21:53:19.102Z,90.15
2018-11-13T21:55:48.620Z,90.97
2018-11-13T21:58:18.267Z,90.92
2018-11-13T22:00:49.179Z,91.10
2018-11-13T22:03:18.921Z,91.11
2018-11-13T22:05:48.557Z,91.07
2018-11-13T22:08:18.266Z,91.21
2018-11-13T22:10:47.703Z,90.83
2018-11-13T22:13:17.328Z,91.37
2018-11-13T22:15:47.027Z,91.90
2018-11-13T22:18:16.588Z,92.00
2018-11-13T22:20:46.253Z,92.19
2018-11-13T22:23:16.025Z,92.18
2018-11-13T22:25:45.624Z,92.44
2018-11-13T22:28:15.396Z,92.52
2018-11-13T22:30:44.847Z,91.79
2018-11-13T22:33:14.617Z,91.73
2018-11-13T22:35:44.260Z,91.94
2018-11-13T22:38:13.864Z,92.16
2018-11-13T22:40:43.879Z,92.20
2018-11-13T22:43:13.407Z,92.36
2018-11-13T22:45:43.240Z,92.09
2018-11-13T22:48:12.809Z,92.46
2018-11-13T22:50:42.500Z,92.45
2018-11-13T22:53:12.548Z,92.43
2018-11-13T22:55:42.210Z,92.63
2018-11-13T22:58:11.853Z,92.70
2018-11-13T23:00:43.818Z,92.69
2018-11-13T23:03:15.478Z,93.45
2018-11-13T23:05:46.608Z,93.09
2018-11-13T23:08:17.935Z,93.12
2018-11-13T23:10:48.870Z,93.17
2018-11-13T23:13:18.419Z,93.00
2018-11-13T23:15:52.016Z,92.37
2018-11-13T23:18:21.724Z,92.85
2018-11-13T23:20:51.367Z,93.27
2018-11-13T23:23:20.851Z,93.60
2018-11-13T23:25:50.442Z,93.37
2018-11-13T23:28:19.890Z,93.09
2018-11-13T23:30:49.578Z,92.65
2018-11-13T23:33:19.137Z,92.80
2018-11-13T23:35:48.791Z,93.00
2018-11-13T23:38:18.206Z,93.10
2018-11-13T23:40:47.902Z,92.84
2018-11-13T23:43:21.164Z,93.10
2018-11-13T23:45:50.837Z,92.89
2018-11-13T23:48:20.441Z,92.68
2018-11-13T23:50:49.924Z,93.09
2018-11-13T23:53:19.596Z,93.15
2018-11-13T23:55:49.549Z,93.05
2018-11-13T23:58:19.328Z,92.60
